sensor_id;sensor_type;location;lat;lon;timestamp;pressure;altitude;pressure_sealevel;temperature;humidity
74544;BME280;63016;55.030;38.710;2022-09-23T00:01:51;99780.63;;;10.97;69.30
74544;BME280;63016;55.030;38.710;2022-09-23T00:04:18;99784.69;;;10.99;69.02
74544;BME280;63016;55.030;38.710;2022-09-23T00:06:44;99786.31;;;11.00;68.98
74544;BME280;63016;55.030;38.710;2022-09-23T00:09:12;99791.22;;;11.03;69.46
74544;BME280;63016;55.030;38.710;2022-09-23T00:11:37;99779.94;;;11.03;69.47
74544;BME280;63016;55.030;38.710;2022-09-23T00:14:03;99786.97;;;11.02;69.30
74544;BME280;63016;55.030;38.710;2022-09-23T00:16:31;99793.00;;;11.03;69.42
74544;BME280;63016;55.030;38.710;2022-09-23T00:18:59;99787.59;;;11.04;69.06
74544;BME280;63016;55.030;38.710;2022-09-23T00:21:25;99782.06;;;11.07;69.16
74544;BME280;63016;55.030;38.710;2022-09-23T00:23:51;99785.28;;;11.10;69.01
74544;BME280;63016;55.030;38.710;2022-09-23T00:26:19;99790.84;;;11.06;69.28
74544;BME280;63016;55.030;38.710;2022-09-23T00:28:46;99788.41;;;11.05;68.97
74544;BME280;63016;55.030;38.710;2022-09-23T00:31:15;99797.25;;;11.04;68.93
74544;BME280;63016;55.030;38.710;2022-09-23T00:33:41;99794.63;;;11.04;68.83
74544;BME280;63016;55.030;38.710;2022-09-23T00:36:10;99797.41;;;11.02;69.29
74544;BME280;63016;55.030;38.710;2022-09-23T00:38:36;99794.81;;;11.02;69.38
74544;BME280;63016;55.030;38.710;2022-09-23T00:41:02;99799.03;;;11.03;69.16
74544;BME280;63016;55.030;38.710;2022-09-23T00:46:21;99793.44;;;11.06;69.62
74544;BME280;63016;55.030;38.710;2022-09-23T00:48:51;99799.34;;;11.09;68.93
74544;BME280;63016;55.030;38.710;2022-09-23T00:51:22;99798.16;;;11.11;69.13
74544;BME280;63016;55.030;38.710;2022-09-23T00:53:49;99804.56;;;11.09;69.39
74544;BME280;63016;55.030;38.710;2022-09-23T00:56:15;99806.81;;;11.12;69.40
74544;BME280;63016;55.030;38.710;2022-09-23T00:58:45;99808.78;;;11.10;68.72
74544;BME280;63016;55.030;38.710;2022-09-23T01:01:11;99799.50;;;11.07;68.95
74544;BME280;63016;55.030;38.710;2022-09-23T01:03:39;99807.88;;;11.02;68.74
74544;BME280;63016;55.030;38.710;2022-09-23T01:06:06;99796.13;;;10.98;68.60
74544;BME280;63016;55.030;38.710;2022-09-23T01:08:31;99803.47;;;10.95;69.11
74544;BME280;63016;55.030;38.710;2022-09-23T01:14:44;99811.31;;;10.95;68.98
74544;BME280;63016;55.030;38.710;2022-09-23T01:17:26;99806.91;;;10.95;69.22
74544;BME280;63016;55.030;38.710;2022-09-23T01:28:41;99806.56;;;10.98;68.69
74544;BME280;63016;55.030;38.710;2022-09-23T01:36:39;99823.06;;;10.91;68.37
74544;BME280;63016;55.030;38.710;2022-09-23T01:39:26;99819.00;;;10.88;69.41
74544;BME280;63016;55.030;38.710;2022-09-23T01:44:47;99807.22;;;10.92;69.48
74544;BME280;63016;55.030;38.710;2022-09-23T01:47:28;99803.66;;;10.93;69.67
74544;BME280;63016;55.030;38.710;2022-09-23T01:50:00;99805.47;;;10.93;69.32
74544;BME280;63016;55.030;38.710;2022-09-23T01:52:51;99801.69;;;10.95;69.40
74544;BME280;63016;55.030;38.710;2022-09-23T01:55:26;99799.06;;;10.95;69.32
74544;BME280;63016;55.030;38.710;2022-09-23T01:58:07;99805.09;;;10.96;69.00
74544;BME280;63016;55.030;38.710;2022-09-23T02:00:38;99800.22;;;10.93;68.99
74544;BME280;63016;55.030;38.710;2022-09-23T02:03:16;99795.34;;;10.90;69.49
74544;BME280;63016;55.030;38.710;2022-09-23T02:05:50;99805.59;;;10.91;69.25
74544;BME280;63016;55.030;38.710;2022-09-23T02:08:26;99803.97;;;10.90;69.19
74544;BME280;63016;55.030;38.710;2022-09-23T02:11:02;99802.38;;;10.89;69.10
74544;BME280;63016;55.030;38.710;2022-09-23T02:16:03;99803.69;;;10.85;69.34
74544;BME280;63016;55.030;38.710;2022-09-23T02:18:38;99806.25;;;10.93;68.00
74544;BME280;63016;55.030;38.710;2022-09-23T02:21:07;99819.97;;;10.87;68.61
74544;BME280;63016;55.030;38.710;2022-09-23T02:23:56;99809.88;;;10.84;68.98
74544;BME280;63016;55.030;38.710;2022-09-23T02:26:31;99808.41;;;10.81;69.42
74544;BME280;63016;55.030;38.710;2022-09-23T02:32:10;99819.81;;;10.89;69.05
74544;BME280;63016;55.030;38.710;2022-09-23T02:39:51;99809.88;;;10.84;69.29
74544;BME280;63016;55.030;38.710;2022-09-23T02:42:22;99812.66;;;10.82;69.22
74544;BME280;63016;55.030;38.710;2022-09-23T02:44:49;99819.34;;;10.85;69.20
74544;BME280;63016;55.030;38.710;2022-09-23T02:47:17;99803.69;;;10.77;69.55
74544;BME280;63016;55.030;38.710;2022-09-23T02:49:44;99812.66;;;10.82;69.17
74544;BME280;63016;55.030;38.710;2022-09-23T02:52:10;99808.59;;;10.80;69.13
74544;BME280;63016;55.030;38.710;2022-09-23T02:54:38;99799.28;;;10.77;68.96
74544;BME280;63016;55.030;38.710;2022-09-23T02:57:05;99799.28;;;10.77;69.28
74544;BME280;63016;55.030;38.710;2022-09-23T02:59:33;99803.69;;;10.77;69.65
74544;BME280;63016;55.030;38.710;2022-09-23T03:04:34;99804.69;;;10.76;68.73
74544;BME280;63016;55.030;38.710;2022-09-23T03:12:45;99796.25;;;10.66;69.56
74544;BME280;63016;55.030;38.710;2022-09-23T03:15:44;99792.66;;;10.67;69.10
74544;BME280;63016;55.030;38.710;2022-09-23T03:18:20;99801.47;;;10.66;68.84
74544;BME280;63016;55.030;38.710;2022-09-23T03:23:40;99794.31;;;10.60;68.64
74544;BME280;63016;55.030;38.710;2022-09-23T03:26:11;99791.03;;;10.58;69.34
74544;BME280;63016;55.030;38.710;2022-09-23T03:28:42;99792.84;;;10.57;69.04
74544;BME280;63016;55.030;38.710;2022-09-23T03:31:10;99792.66;;;10.59;69.62
74544;BME280;63016;55.030;38.710;2022-09-23T03:33:40;99790.06;;;10.59;69.29
74544;BME280;63016;55.030;38.710;2022-09-23T03:36:09;99795.13;;;10.60;69.38
74544;BME280;63016;55.030;38.710;2022-09-23T03:39:00;99793.16;;;10.62;69.28
74544;BME280;63016;55.030;38.710;2022-09-23T03:41:35;99782.56;;;10.64;69.54
74544;BME280;63016;55.030;38.710;2022-09-23T03:44:02;99791.03;;;10.66;69.75
74544;BME280;63016;55.030;38.710;2022-09-23T03:46:28;99786.63;;;10.66;69.57
74544;BME280;63016;55.030;38.710;2022-09-23T03:49:23;99793.13;;;10.70;69.50
74544;BME280;63016;55.030;38.710;2022-09-23T03:51:48;99787.75;;;10.72;69.71
74544;BME280;63016;55.030;38.710;2022-09-23T03:54:14;99780.22;;;10.77;69.17
74544;BME280;63016;55.030;38.710;2022-09-23T03:56:40;99779.06;;;10.79;69.72
74544;BME280;63016;55.030;38.710;2022-09-23T03:59:05;99779.38;;;10.85;69.76
74544;BME280;63016;55.030;38.710;2022-09-23T04:01:31;99777.25;;;10.88;69.73
74544;BME280;63016;55.030;38.710;2022-09-23T04:03:56;99796.78;;;10.92;70.22
74544;BME280;63016;55.030;38.710;2022-09-23T04:06:22;99780.63;;;10.97;69.66
74544;BME280;63016;55.030;38.710;2022-09-23T04:08:47;99780.09;;;11.01;69.67
74544;BME280;63016;55.030;38.710;2022-09-23T04:11:13;99789.03;;;11.07;69.74
74544;BME280;63016;55.030;38.710;2022-09-23T04:13:39;99796.38;;;11.12;69.80
74544;BME280;63016;55.030;38.710;2022-09-23T04:16:04;99800.44;;;11.14;69.60
74544;BME280;63016;55.030;38.710;2022-09-23T04:18:30;99792.28;;;11.17;69.59
74544;BME280;63016;55.030;38.710;2022-09-23T04:20:57;99796.50;;;11.18;69.45
74544;BME280;63016;55.030;38.710;2022-09-23T04:23:25;99792.72;;;11.21;69.51
74544;BME280;63016;55.030;38.710;2022-09-23T04:25:51;99793.22;;;11.24;69.68
74544;BME280;63016;55.030;38.710;2022-09-23T04:28:18;99793.84;;;11.26;69.76
74544;BME280;63016;55.030;38.710;2022-09-23T04:30:43;99792.50;;;11.30;69.53
74544;BME280;63016;55.030;38.710;2022-09-23T04:33:11;99781.09;;;11.31;69.60
74544;BME280;63016;55.030;38.710;2022-09-23T04:35:37;99780.09;;;11.32;69.63
74544;BME280;63016;55.030;38.710;2022-09-23T04:38:06;99770.09;;;11.36;69.63
74544;BME280;63016;55.030;38.710;2022-09-23T04:40:34;99771.75;;;11.37;69.40
74544;BME280;63016;55.030;38.710;2022-09-23T04:43:00;99769.13;;;11.37;69.36
74544;BME280;63016;55.030;38.710;2022-09-23T04:45:26;99774.00;;;11.40;69.80
74544;BME280;63016;55.030;38.710;2022-09-23T04:47:51;99773.66;;;11.43;69.88
74544;BME280;63016;55.030;38.710;2022-09-23T04:50:17;99771.53;;;11.47;69.93
74544;BME280;63016;55.030;38.710;2022-09-23T04:52:43;99754.03;;;11.47;69.57
74544;BME280;63016;55.030;38.710;2022-09-23T04:55:08;99753.84;;;11.49;69.48
74544;BME280;63016;55.030;38.710;2022-09-23T04:57:34;99756.28;;;11.50;69.72
74544;BME280;63016;55.030;38.710;2022-09-23T04:59:59;99760.56;;;11.51;69.91
74544;BME280;63016;55.030;38.710;2022-09-23T05:02:25;99750.53;;;11.55;69.87
74544;BME280;63016;55.030;38.710;2022-09-23T05:04:52;99759.19;;;11.55;70.13
74544;BME280;63016;55.030;38.710;2022-09-23T05:07:20;99753.44;;;11.60;69.99
74544;BME280;63016;55.030;38.710;2022-09-23T05:09:45;99755.53;;;11.65;70.38
74544;BME280;63016;55.030;38.710;2022-09-23T05:12:11;99755.19;;;11.68;69.68
74544;BME280;63016;55.030;38.710;2022-09-23T05:14:36;99760.69;;;11.73;70.02
74544;BME280;63016;55.030;38.710;2022-09-23T05:17:05;99759.38;;;11.77;69.95
74544;BME280;63016;55.030;38.710;2022-09-23T05:19:30;99758.84;;;11.81;69.71
74544;BME280;63016;55.030;38.710;2022-09-23T05:21:56;99757.69;;;11.84;69.55
74544;BME280;63016;55.030;38.710;2022-09-23T05:24:21;99751.50;;;11.85;69.78
74544;BME280;63016;55.030;38.710;2022-09-23T05:26:49;99759.16;;;11.87;69.79
74544;BME280;63016;55.030;38.710;2022-09-23T05:29:16;99752.72;;;11.89;70.11
74544;BME280;63016;55.030;38.710;2022-09-23T05:31:41;99763.66;;;11.93;70.07
74544;BME280;63016;55.030;38.710;2022-09-23T05:34:07;99763.31;;;11.96;69.91
74544;BME280;63016;55.030;38.710;2022-09-23T05:36:34;99769.81;;;12.00;70.19
74544;BME280;63016;55.030;38.710;2022-09-23T05:39:00;99760.63;;;12.04;70.09
74544;BME280;63016;55.030;38.710;2022-09-23T05:41:26;99747.84;;;12.09;69.52
74544;BME280;63016;55.030;38.710;2022-09-23T05:43:53;99745.03;;;12.11;69.74
74544;BME280;63016;55.030;38.710;2022-09-23T05:46:20;99734.38;;;12.12;69.78
74544;BME280;63016;55.030;38.710;2022-09-23T05:48:47;99733.84;;;12.17;70.13
74544;BME280;63016;55.030;38.710;2022-09-23T05:51:15;99734.94;;;12.22;70.27
74544;BME280;63016;55.030;38.710;2022-09-23T05:53:41;99730.78;;;12.28;70.16
74544;BME280;63016;55.030;38.710;2022-09-23T05:56:17;99738.94;;;12.33;70.20
74544;BME280;63016;55.030;38.710;2022-09-23T05:58:43;99726.81;;;12.32;69.82
74544;BME280;63016;55.030;38.710;2022-09-23T06:01:10;99749.94;;;12.43;70.22
74544;BME280;63016;55.030;38.710;2022-09-23T06:03:37;99759.66;;;12.49;70.17
74544;BME280;63016;55.030;38.710;2022-09-23T06:06:02;99759.94;;;12.54;70.22
74544;BME280;63016;55.030;38.710;2022-09-23T06:08:28;99746.91;;;12.61;70.19
74544;BME280;63016;55.030;38.710;2022-09-23T06:10:53;99734.09;;;12.66;69.95
74544;BME280;63016;55.030;38.710;2022-09-23T06:13:19;99740.59;;;12.70;69.65
74544;BME280;63016;55.030;38.710;2022-09-23T06:15:44;99727.34;;;12.72;69.88
74544;BME280;63016;55.030;38.710;2022-09-23T06:18:10;99736.44;;;12.76;69.58
74544;BME280;63016;55.030;38.710;2022-09-23T06:20:36;99741.50;;;12.77;69.87
74544;BME280;63016;55.030;38.710;2022-09-23T06:23:03;99733.44;;;12.79;69.67
74544;BME280;63016;55.030;38.710;2022-09-23T06:25:33;99732.28;;;12.81;69.58
74544;BME280;63016;55.030;38.710;2022-09-23T06:27:59;99740.56;;;12.85;69.92
74544;BME280;63016;55.030;38.710;2022-09-23T06:30:25;99738.41;;;12.89;69.79
74544;BME280;63016;55.030;38.710;2022-09-23T06:32:53;99750.50;;;12.90;69.69
74544;BME280;63016;55.030;38.710;2022-09-23T06:35:21;99756.19;;;12.93;69.35
74544;BME280;63016;55.030;38.710;2022-09-23T06:37:47;99755.19;;;12.94;69.56
74544;BME280;63016;55.030;38.710;2022-09-23T06:40:12;99754.16;;;12.95;69.41
74544;BME280;63016;55.030;38.710;2022-09-23T06:42:39;99758.84;;;13.00;69.49
74544;BME280;63016;55.030;38.710;2022-09-23T06:45:05;99762.13;;;13.02;69.61
74544;BME280;63016;55.030;38.710;2022-09-23T06:47:31;99760.56;;;13.07;69.67
74544;BME280;63016;55.030;38.710;2022-09-23T06:49:56;99760.81;;;13.12;69.46
74544;BME280;63016;55.030;38.710;2022-09-23T06:52:23;99772.56;;;13.17;69.42
74544;BME280;63016;55.030;38.710;2022-09-23T06:54:48;99766.31;;;13.18;69.55
74544;BME280;63016;55.030;38.710;2022-09-23T06:57:14;99761.00;;;13.26;69.36
74544;BME280;63016;55.030;38.710;2022-09-23T06:59:39;99760.81;;;13.27;69.70
74544;BME280;63016;55.030;38.710;2022-09-23T07:02:07;99759.44;;;13.31;69.37
74544;BME280;63016;55.030;38.710;2022-09-23T07:04:33;99750.56;;;13.32;69.23
74544;BME280;63016;55.030;38.710;2022-09-23T07:06:59;99754.91;;;13.40;69.20
74544;BME280;63016;55.030;38.710;2022-09-23T07:09:24;99754.34;;;13.45;68.91
74544;BME280;63016;55.030;38.710;2022-09-23T07:11:50;99748.91;;;13.46;69.21
74544;BME280;63016;55.030;38.710;2022-09-23T07:14:15;99740.28;;;13.52;69.47
74544;BME280;63016;55.030;38.710;2022-09-23T07:16:41;99733.72;;;13.63;69.59
74544;BME280;63016;55.030;38.710;2022-09-23T07:19:06;99729.38;;;13.77;69.23
74544;BME280;63016;55.030;38.710;2022-09-23T07:21:32;99717.56;;;13.87;68.50
74544;BME280;63016;55.030;38.710;2022-09-23T07:23:58;99719.84;;;13.97;68.64
74544;BME280;63016;55.030;38.710;2022-09-23T07:26:23;99715.69;;;14.09;68.72
74544;BME280;63016;55.030;38.710;2022-09-23T07:28:53;99715.78;;;14.23;68.39
74544;BME280;63016;55.030;38.710;2022-09-23T07:31:19;99713.41;;;14.34;68.32
74544;BME280;63016;55.030;38.710;2022-09-23T07:33:45;99715.09;;;14.42;67.98
74544;BME280;63016;55.030;38.710;2022-09-23T07:36:14;99719.91;;;14.45;68.16
74544;BME280;63016;55.030;38.710;2022-09-23T07:38:41;99720.94;;;14.44;67.71
74544;BME280;63016;55.030;38.710;2022-09-23T07:41:09;99707.00;;;14.44;67.10
74544;BME280;63016;55.030;38.710;2022-09-23T07:43:35;99713.63;;;14.39;67.56
74544;BME280;63016;55.030;38.710;2022-09-23T07:46:08;99722.94;;;14.42;67.23
74544;BME280;63016;55.030;38.710;2022-09-23T07:48:36;99719.53;;;14.42;67.59
74544;BME280;63016;55.030;38.710;2022-09-23T07:51:09;99715.25;;;14.40;67.59
74544;BME280;63016;55.030;38.710;2022-09-23T07:53:35;99717.72;;;14.42;67.60
74544;BME280;63016;55.030;38.710;2022-09-23T07:56:01;99719.91;;;14.45;67.38
74544;BME280;63016;55.030;38.710;2022-09-23T07:58:30;99714.31;;;14.48;67.79
74544;BME280;63016;55.030;38.710;2022-09-23T08:01:04;99717.59;;;14.57;68.20
74544;BME280;63016;55.030;38.710;2022-09-23T08:03:30;99728.13;;;14.63;67.62
74544;BME280;63016;55.030;38.710;2022-09-23T08:06:08;99734.00;;;14.65;67.68
74544;BME280;63016;55.030;38.710;2022-09-23T08:08:35;99733.00;;;14.67;66.92
74544;BME280;63016;55.030;38.710;2022-09-23T08:11:05;99730.16;;;14.68;67.11
74544;BME280;63016;55.030;38.710;2022-09-23T08:13:32;99720.47;;;14.69;66.95
74544;BME280;63016;55.030;38.710;2022-09-23T08:15:58;99717.84;;;14.69;66.56
74544;BME280;63016;55.030;38.710;2022-09-23T08:18:23;99706.72;;;14.67;66.85
74544;BME280;63016;55.030;38.710;2022-09-23T08:20:49;99699.06;;;14.65;66.53
74544;BME280;63016;55.030;38.710;2022-09-23T08:23:15;99690.13;;;14.59;66.75
74544;BME280;63016;55.030;38.710;2022-09-23T08:25:42;99691.56;;;14.62;66.89
74544;BME280;63016;55.030;38.710;2022-09-23T08:28:10;99687.94;;;14.63;67.20
74544;BME280;63016;55.030;38.710;2022-09-23T08:30:37;99680.84;;;14.63;67.09
74544;BME280;63016;55.030;38.710;2022-09-23T08:33:03;99687.56;;;14.73;67.28
74544;BME280;63016;55.030;38.710;2022-09-23T08:35:29;99689.22;;;14.80;66.94
74544;BME280;63016;55.030;38.710;2022-09-23T08:37:54;99688.63;;;14.85;66.85
74544;BME280;63016;55.030;38.710;2022-09-23T08:40:20;99689.81;;;14.89;66.46
74544;BME280;63016;55.030;38.710;2022-09-23T08:42:45;99696.28;;;14.93;66.04
74544;BME280;63016;55.030;38.710;2022-09-23T08:45:18;99675.28;;;14.86;66.35
74544;BME280;63016;55.030;38.710;2022-09-23T08:48:04;99678.91;;;14.99;66.48
74544;BME280;63016;55.030;38.710;2022-09-23T08:50:39;99681.38;;;15.00;65.95
74544;BME280;63016;55.030;38.710;2022-09-23T08:55:50;99679.38;;;15.09;66.28
74544;BME280;63016;55.030;38.710;2022-09-23T09:03:38;99690.66;;;15.03;66.33
74544;BME280;63016;55.030;38.710;2022-09-23T09:06:05;99689.03;;;15.08;65.69
74544;BME280;63016;55.030;38.710;2022-09-23T09:08:36;99691.28;;;15.11;66.15
74544;BME280;63016;55.030;38.710;2022-09-23T09:11:04;99686.22;;;15.16;65.99
74544;BME280;63016;55.030;38.710;2022-09-23T09:13:38;99687.47;;;15.21;65.93
74544;BME280;63016;55.030;38.710;2022-09-23T09:18:58;99686.84;;;15.32;65.63
74544;BME280;63016;55.030;38.710;2022-09-23T09:21:31;99687.25;;;15.35;65.85
74544;BME280;63016;55.030;38.710;2022-09-23T09:24:01;99696.97;;;15.41;66.19
74544;BME280;63016;55.030;38.710;2022-09-23T09:26:32;99681.00;;;15.43;65.22
74544;BME280;63016;55.030;38.710;2022-09-23T09:29:17;99676.75;;;15.42;65.10
74544;BME280;63016;55.030;38.710;2022-09-23T09:31:48;99682.00;;;15.42;65.24
74544;BME280;63016;55.030;38.710;2022-09-23T09:39:45;99675.72;;;15.56;65.81
74544;BME280;63016;55.030;38.710;2022-09-23T09:42:39;99655.53;;;15.63;66.08
74544;BME280;63016;55.030;38.710;2022-09-23T09:48:05;99657.75;;;15.73;64.96
74544;BME280;63016;55.030;38.710;2022-09-23T09:50:49;99647.03;;;15.75;65.17
74544;BME280;63016;55.030;38.710;2022-09-23T09:56:01;99647.00;;;15.88;66.88
74544;BME280;63016;55.030;38.710;2022-09-23T10:01:16;99638.72;;;15.78;64.94
74544;BME280;63016;55.030;38.710;2022-09-23T10:03:43;99635.47;;;15.76;64.73
74544;BME280;63016;55.030;38.710;2022-09-23T10:06:15;99641.38;;;15.78;65.08
74544;BME280;63016;55.030;38.710;2022-09-23T10:08:41;99634.66;;;15.88;66.85
74544;BME280;63016;55.030;38.710;2022-09-23T10:11:16;99626.16;;;15.93;65.06
74544;BME280;63016;55.030;38.710;2022-09-23T10:16:33;99615.19;;;16.03;64.77
74544;BME280;63016;55.030;38.710;2022-09-23T10:19:01;99620.22;;;16.04;64.78
74544;BME280;63016;55.030;38.710;2022-09-23T10:21:35;99628.94;;;16.05;64.58
74544;BME280;63016;55.030;38.710;2022-09-23T10:24:04;99626.91;;;16.07;64.45
74544;BME280;63016;55.030;38.710;2022-09-23T10:29:32;99603.22;;;16.07;65.04
74544;BME280;63016;55.030;38.710;2022-09-23T10:32:17;99607.69;;;16.06;64.95
74544;BME280;63016;55.030;38.710;2022-09-23T10:37:35;99605.25;;;16.11;64.43
74544;BME280;63016;55.030;38.710;2022-09-23T10:46:29;99609.88;;;16.16;63.55
74544;BME280;63016;55.030;38.710;2022-09-23T10:49:27;99610.06;;;16.14;64.40
74544;BME280;63016;55.030;38.710;2022-09-23T10:52:29;99605.25;;;16.11;63.67
74544;BME280;63016;55.030;38.710;2022-09-23T11:08:50;99601.22;;;16.02;63.84
74544;BME280;63016;55.030;38.710;2022-09-23T11:11:27;99596.19;;;16.01;63.44
74544;BME280;63016;55.030;38.710;2022-09-23T11:14:10;99601.63;;;15.99;63.75
74544;BME280;63016;55.030;38.710;2022-09-23T11:19:31;99588.91;;;15.96;63.68
74544;BME280;63016;55.030;38.710;2022-09-23T11:27:28;99583.06;;;15.87;63.67
74544;BME280;63016;55.030;38.710;2022-09-23T11:33:12;99572.53;;;15.81;64.38
74544;BME280;63016;55.030;38.710;2022-09-23T11:35:57;99559.81;;;15.78;64.25
74544;BME280;63016;55.030;38.710;2022-09-23T11:38:28;99564.47;;;15.76;64.66
74544;BME280;63016;55.030;38.710;2022-09-23T11:41:01;99574.97;;;15.76;64.39
74544;BME280;63016;55.030;38.710;2022-09-23T11:43:28;99588.94;;;15.83;65.35
74544;BME280;63016;55.030;38.710;2022-09-23T11:46:02;99579.84;;;15.79;63.87
74544;BME280;63016;55.030;38.710;2022-09-23T11:51:12;99569.34;;;15.65;63.72
74544;BME280;63016;55.030;38.710;2022-09-23T11:53:46;99570.56;;;15.63;64.01
74544;BME280;63016;55.030;38.710;2022-09-23T11:56:20;99572.56;;;15.61;64.16
74544;BME280;63016;55.030;38.710;2022-09-23T11:58:57;99570.38;;;15.64;64.42
74544;BME280;63016;55.030;38.710;2022-09-23T12:01:42;99583.09;;;15.74;64.73
74544;BME280;63016;55.030;38.710;2022-09-23T12:04:25;99569.31;;;15.79;64.41
74544;BME280;63016;55.030;38.710;2022-09-23T12:07:15;99568.28;;;15.80;64.43
74544;BME280;63016;55.030;38.710;2022-09-23T12:09:57;99570.34;;;15.78;63.76
74544;BME280;63016;55.030;38.710;2022-09-23T12:13:03;99565.88;;;15.78;64.80
74544;BME280;63016;55.030;38.710;2022-09-23T12:15:47;99565.06;;;15.78;63.67
74544;BME280;63016;55.030;38.710;2022-09-23T12:21:56;99570.34;;;15.71;63.64
74544;BME280;63016;55.030;38.710;2022-09-23T12:24:45;99570.16;;;15.66;63.30
74544;BME280;63016;55.030;38.710;2022-09-23T12:27:22;99570.16;;;15.59;63.37
74544;BME280;63016;55.030;38.710;2022-09-23T12:29:54;99562.06;;;15.54;63.75
74544;BME280;63016;55.030;38.710;2022-09-23T12:32:21;99562.25;;;15.59;64.77
74544;BME280;63016;55.030;38.710;2022-09-23T12:34:50;99564.69;;;15.54;63.85
74544;BME280;63016;55.030;38.710;2022-09-23T12:39:58;99559.44;;;15.54;63.99
74544;BME280;63016;55.030;38.710;2022-09-23T12:42:24;99559.44;;;15.54;63.34
74544;BME280;63016;55.030;38.710;2022-09-23T12:44:49;99557.81;;;15.53;63.48
74544;BME280;63016;55.030;38.710;2022-09-23T12:49:52;99563.09;;;15.53;64.05
74544;BME280;63016;55.030;38.710;2022-09-23T12:54:48;99553.78;;;15.57;63.62
74544;BME280;63016;55.030;38.710;2022-09-23T12:59:59;99546.28;;;15.67;63.78
74544;BME280;63016;55.030;38.710;2022-09-23T13:10:55;99552.56;;;15.66;63.80
74544;BME280;63016;55.030;38.710;2022-09-23T13:13:26;99544.88;;;15.65;63.69
74544;BME280;63016;55.030;38.710;2022-09-23T13:16:09;99545.09;;;15.63;63.65
74544;BME280;63016;55.030;38.710;2022-09-23T13:26:46;99556.81;;;15.54;63.38
74544;BME280;63016;55.030;38.710;2022-09-23T13:29:41;99545.28;;;15.49;63.96
74544;BME280;63016;55.030;38.710;2022-09-23T13:32:16;99543.25;;;15.51;63.91
74544;BME280;63016;55.030;38.710;2022-09-23T13:34:55;99536.59;;;15.48;63.71
74544;BME280;63016;55.030;38.710;2022-09-23T13:37:28;99540.44;;;15.46;63.61
74544;BME280;63016;55.030;38.710;2022-09-23T13:40:05;99540.44;;;15.52;64.55
74544;BME280;63016;55.030;38.710;2022-09-23T13:42:37;99543.69;;;15.48;63.34
74544;BME280;63016;55.030;38.710;2022-09-23T13:45:04;99534.19;;;15.40;63.23
74544;BME280;63016;55.030;38.710;2022-09-23T13:47:30;99515.38;;;15.36;63.42
74544;BME280;63016;55.030;38.710;2022-09-23T13:49:57;99515.19;;;15.31;63.51
74544;BME280;63016;55.030;38.710;2022-09-23T13:52:28;99517.84;;;15.25;63.42
74544;BME280;63016;55.030;38.710;2022-09-23T13:54:55;99513.78;;;15.22;63.87
74544;BME280;63016;55.030;38.710;2022-09-23T13:57:32;99514.81;;;15.21;63.96
74544;BME280;63016;55.030;38.710;2022-09-23T14:00:00;99511.97;;;15.23;63.66
74544;BME280;63016;55.030;38.710;2022-09-23T14:02:26;99510.97;;;15.24;63.83
74544;BME280;63016;55.030;38.710;2022-09-23T14:04:57;99507.72;;;15.22;63.50
74544;BME280;63016;55.030;38.710;2022-09-23T14:07:23;99505.31;;;15.20;63.65
74544;BME280;63016;55.030;38.710;2022-09-23T14:09:51;99506.34;;;15.19;63.51
74544;BME280;63016;55.030;38.710;2022-09-23T14:12:18;99503.09;;;15.17;63.54
74544;BME280;63016;55.030;38.710;2022-09-23T14:14:47;99511.78;;;15.17;63.59
74544;BME280;63016;55.030;38.710;2022-09-23T14:17:17;99516.44;;;15.15;63.58
74544;BME280;63016;55.030;38.710;2022-09-23T14:19:44;99510.16;;;15.16;63.48
74544;BME280;63016;55.030;38.710;2022-09-23T14:22:26;99509.34;;;15.16;63.53
74544;BME280;63016;55.030;38.710;2022-09-23T14:24:53;99507.13;;;15.13;63.47
74544;BME280;63016;55.030;38.710;2022-09-23T14:27:30;99506.75;;;15.09;63.63
74544;BME280;63016;55.030;38.710;2022-09-23T14:29:56;99493.19;;;15.06;63.72
74544;BME280;63016;55.030;38.710;2022-09-23T14:32:24;99490.59;;;14.99;63.46
74544;BME280;63016;55.030;38.710;2022-09-23T14:35:05;99494.81;;;14.94;63.68
74544;BME280;63016;55.030;38.710;2022-09-23T14:40:29;99493.22;;;14.86;63.64
74544;BME280;63016;55.030;38.710;2022-09-23T14:43:02;99486.53;;;14.83;63.36
74544;BME280;63016;55.030;38.710;2022-09-23T14:45:37;99498.28;;;14.81;63.74
74544;BME280;63016;55.030;38.710;2022-09-23T14:48:14;99485.75;;;14.76;63.54
74544;BME280;63016;55.030;38.710;2022-09-23T14:50:49;99483.34;;;14.75;63.51
74544;BME280;63016;55.030;38.710;2022-09-23T14:55:48;99487.19;;;14.65;63.80
74544;BME280;63016;55.030;38.710;2022-09-23T14:58:18;99480.72;;;14.61;63.91
74544;BME280;63016;55.030;38.710;2022-09-23T15:00:59;99479.09;;;14.60;63.98
74544;BME280;63016;55.030;38.710;2022-09-23T15:03:26;99477.47;;;14.59;64.02
74544;BME280;63016;55.030;38.710;2022-09-23T15:06:04;99472.19;;;14.59;63.95
74544;BME280;63016;55.030;38.710;2022-09-23T15:08:33;99480.50;;;14.56;63.54
74544;BME280;63016;55.030;38.710;2022-09-23T15:11:01;99472.44;;;14.51;63.85
74544;BME280;63016;55.030;38.710;2022-09-23T15:13:30;99476.63;;;14.46;63.60
74544;BME280;63016;55.030;38.710;2022-09-23T15:15:57;99471.16;;;14.40;63.94
74544;BME280;63016;55.030;38.710;2022-09-23T15:18:29;99464.72;;;14.36;63.96
74544;BME280;63016;55.030;38.710;2022-09-23T15:21:13;99463.91;;;14.36;63.93
74544;BME280;63016;55.030;38.710;2022-09-23T15:26:17;99465.69;;;14.35;63.75
74544;BME280;63016;55.030;38.710;2022-09-23T15:28:43;99465.91;;;14.34;64.08
74544;BME280;63016;55.030;38.710;2022-09-23T15:31:17;99477.63;;;14.31;63.97
74544;BME280;63016;55.030;38.710;2022-09-23T15:33:43;99478.41;;;14.25;63.55
74544;BME280;63016;55.030;38.710;2022-09-23T15:36:17;99489.50;;;14.21;64.22
74544;BME280;63016;55.030;38.710;2022-09-23T15:38:44;99472.53;;;14.17;63.82